createdAt,value
2019-01-14T00:00:05.303Z,6.90
2019-01-14T00:02:33.835Z,6.80
2019-01-14T00:05:02.394Z,6.80
2019-01-14T00:07:30.930Z,6.80
2019-01-14T00:09:59.421Z,6.80
2019-01-14T00:12:27.959Z,6.80
2019-01-14T00:14:56.520Z,6.80
2019-01-14T00:17:25.050Z,6.70
2019-01-14T00:19:53.540Z,6.60
2019-01-14T00:22:22.075Z,6.50
2019-01-14T00:24:50.633Z,6.40
2019-01-14T00:27:19.172Z,6.50
2019-01-14T00:29:47.748Z,6.40
2019-01-14T00:32:16.283Z,6.40
2019-01-14T00:34:44.837Z,6.30
2019-01-14T00:37:13.367Z,6.40
2019-01-14T00:39:41.926Z,6.50
2019-01-14T00:42:10.393Z,6.50
2019-01-14T00:44:38.950Z,6.50
2019-01-14T00:47:07.414Z,6.50
2019-01-14T00:49:35.979Z,6.50
2019-01-14T00:52:04.586Z,6.60
2019-01-14T00:54:33.123Z,6.60
2019-01-14T00:57:01.687Z,6.60
2019-01-14T00:59:30.218Z,6.60
2019-01-14T01:01:58.773Z,6.60
2019-01-14T01:04:27.310Z,6.50
2019-01-14T01:06:55.941Z,6.60
2019-01-14T01:09:24.470Z,6.50
2019-01-14T01:11:53.034Z,6.40
2019-01-14T01:14:21.494Z,6.40
2019-01-14T01:16:50.063Z,6.40
2019-01-14T01:19:18.598Z,6.40
2019-01-14T01:21:47.163Z,6.40
2019-01-14T01:24:15.691Z,6.40
2019-01-14T01:26:44.254Z,6.40
2019-01-14T01:29:12.782Z,6.50
2019-01-14T01:31:41.270Z,6.70
2019-01-14T01:34:09.810Z,6.70
2019-01-14T01:36:38.366Z,6.70
2019-01-14T01:39:07.764Z,6.80
2019-01-14T01:41:36.344Z,6.70
2019-01-14T01:44:04.949Z,6.80
2019-01-14T01:46:33.446Z,6.80
2019-01-14T01:49:01.978Z,6.80
2019-01-14T01:51:30.517Z,6.80
2019-01-14T01:53:59.002Z,6.80
2019-01-14T01:56:27.545Z,6.90
2019-01-14T01:58:56.174Z,6.80
2019-01-14T02:01:24.716Z,6.80
2019-01-14T02:03:53.342Z,6.80
2019-01-14T02:06:21.873Z,6.80
2019-01-14T02:08:50.425Z,6.90
2019-01-14T02:11:19.174Z,6.80
2019-01-14T02:13:48.466Z,6.80
2019-01-14T02:16:17.002Z,6.80
2019-01-14T02:18:45.491Z,6.80
2019-01-14T02:21:14.021Z,6.80
2019-01-14T02:23:42.577Z,6.80
2019-01-14T02:26:11.030Z,6.80
2019-01-14T02:28:39.590Z,6.80
2019-01-14T02:31:08.048Z,6.80
2019-01-14T02:33:36.614Z,6.80
2019-01-14T02:36:05.646Z,6.70
2019-01-14T02:38:34.210Z,6.50
2019-01-14T02:41:02.747Z,6.50
2019-01-14T02:43:31.305Z,6.50
2019-01-14T02:45:59.787Z,6.40
2019-01-14T02:48:28.355Z,6.40
2019-01-14T02:50:56.885Z,6.50
2019-01-14T02:53:25.378Z,6.60
2019-01-14T02:55:53.906Z,6.60
2019-01-14T02:58:22.405Z,6.50
2019-01-14T03:00:50.939Z,6.50
2019-01-14T03:03:19.491Z,6.50
2019-01-14T03:05:48.039Z,6.40
2019-01-14T03:08:16.571Z,6.50
2019-01-14T03:10:45.140Z,6.50
2019-01-14T03:13:13.675Z,6.50
2019-01-14T03:15:42.234Z,6.40
2019-01-14T03:18:10.771Z,6.50
2019-01-14T03:20:39.341Z,6.50
2019-01-14T03:23:07.946Z,6.50
2019-01-14T03:25:36.503Z,6.40
2019-01-14T03:28:05.107Z,6.40
2019-01-14T03:30:33.676Z,6.50
2019-01-14T03:33:02.212Z,6.50
2019-01-14T03:35:31.655Z,6.60
2019-01-14T03:38:00.185Z,6.60
2019-01-14T03:40:28.742Z,6.60
2019-01-14T03:42:57.268Z,6.60
2019-01-14T03:45:25.764Z,6.60
2019-01-14T03:47:54.308Z,6.60
2019-01-14T03:50:23.203Z,6.60
2019-01-14T03:52:51.882Z,6.60
2019-01-14T03:55:20.435Z,6.60
2019-01-14T03:57:49.941Z,6.50
2019-01-14T04:00:18.632Z,6.50
2019-01-14T04:02:47.247Z,6.50
2019-01-14T04:05:15.914Z,6.40
2019-01-14T04:07:44.543Z,6.40
2019-01-14T04:10:17.657Z,6.40
2019-01-14T04:12:46.439Z,6.30
2019-01-14T04:15:17.009Z,6.30
2019-01-14T04:17:45.939Z,6.20
2019-01-14T04:20:16.338Z,6.30
2019-01-14T04:22:45.030Z,6.20
2019-01-14T04:25:13.831Z,6.30
2019-01-14T04:27:42.320Z,6.20
2019-01-14T04:30:13.944Z,6.30
2019-01-14T04:32:42.503Z,6.20
2019-01-14T04:35:11.571Z,6.20
2019-01-14T04:37:40.131Z,6.30
2019-01-14T04:40:11.610Z,6.30
2019-01-14T04:42:40.162Z,6.20
2019-01-14T04:45:11.164Z,6.30
2019-01-14T04:47:39.703Z,6.20
2019-01-14T04:50:11.247Z,6.30
2019-01-14T04:52:39.879Z,6.20
2019-01-14T04:55:08.551Z,6.20
2019-01-14T04:57:37.186Z,6.30
2019-01-14T05:00:08.805Z,6.30
2019-01-14T05:02:37.367Z,6.20
2019-01-14T05:05:07.342Z,6.10
2019-01-14T05:07:35.914Z,6.10
2019-01-14T05:10:07.858Z,6.10
2019-01-14T05:12:36.321Z,6.00
2019-01-14T05:15:07.423Z,5.90
2019-01-14T05:17:35.949Z,5.80
2019-01-14T05:20:07.509Z,5.90
2019-01-14T05:22:35.967Z,5.80
2019-01-14T05:25:06.975Z,5.80
2019-01-14T05:27:35.575Z,5.90
2019-01-14T05:30:07.439Z,5.80
2019-01-14T05:32:35.918Z,5.90
2019-01-14T05:35:06.317Z,5.80
2019-01-14T05:37:37.726Z,5.70
2019-01-14T05:40:10.617Z,5.70
2019-01-14T05:42:39.155Z,5.60
2019-01-14T05:45:08.350Z,5.60
2019-01-14T05:47:36.881Z,5.70
2019-01-14T05:50:08.450Z,5.70
2019-01-14T05:52:36.987Z,5.80
2019-01-14T05:55:07.091Z,5.70
2019-01-14T05:57:35.764Z,5.50
2019-01-14T06:00:10.271Z,5.50
2019-01-14T06:02:38.806Z,5.50
2019-01-14T06:05:07.502Z,5.40
2019-01-14T06:07:36.032Z,5.50
2019-01-14T06:10:07.129Z,5.50
2019-01-14T06:12:35.599Z,5.40
2019-01-14T06:15:06.763Z,5.40
2019-01-14T06:17:35.307Z,5.40
2019-01-14T06:20:05.974Z,5.40
2019-01-14T06:22:34.502Z,5.40
2019-01-14T06:25:03.471Z,5.40
2019-01-14T06:27:32.003Z,5.40
2019-01-14T06:30:00.580Z,5.50
2019-01-14T06:32:29.112Z,5.70
2019-01-14T06:34:57.670Z,5.60
2019-01-14T06:37:26.202Z,5.50
2019-01-14T06:39:54.653Z,5.50
2019-01-14T06:42:23.138Z,5.50
2019-01-14T06:44:51.670Z,5.50
2019-01-14T06:47:20.235Z,5.50
2019-01-14T06:49:48.774Z,5.50
2019-01-14T06:52:17.339Z,5.40
2019-01-14T06:54:45.869Z,5.40
2019-01-14T06:57:14.431Z,5.40
2019-01-14T06:59:42.973Z,5.40
2019-01-14T07:02:11.591Z,5.40
2019-01-14T07:04:40.131Z,5.50
2019-01-14T07:07:08.696Z,5.40
2019-01-14T07:09:37.298Z,5.30
2019-01-14T07:12:05.854Z,5.40
2019-01-14T07:14:34.425Z,5.30
2019-01-14T07:17:02.950Z,5.20
2019-01-14T07:19:31.485Z,5.10
2019-01-14T07:21:59.971Z,5.20
2019-01-14T07:24:28.510Z,5.20
2019-01-14T07:26:57.074Z,5.20
2019-01-14T07:29:25.612Z,5.40
2019-01-14T07:31:54.191Z,5.40
2019-01-14T07:34:22.718Z,5.30
2019-01-14T07:36:51.278Z,5.30
2019-01-14T07:39:19.810Z,5.40
2019-01-14T07:41:48.362Z,5.40
2019-01-14T07:44:16.893Z,5.40
2019-01-14T07:46:45.388Z,5.40
2019-01-14T07:49:13.920Z,5.50
2019-01-14T07:51:42.479Z,5.50
2019-01-14T07:54:11.084Z,5.50
2019-01-14T07:56:40.087Z,5.50
2019-01-14T07:59:08.941Z,5.50
2019-01-14T08:01:37.531Z,5.50
2019-01-14T08:04:06.094Z,5.50
2019-01-14T08:06:34.632Z,5.40
2019-01-14T08:09:04.272Z,5.40
2019-01-14T08:11:32.815Z,5.50
2019-01-14T08:14:01.374Z,5.40
2019-01-14T08:16:29.902Z,5.60
2019-01-14T08:18:58.459Z,5.60
2019-01-14T08:21:27.057Z,5.50
2019-01-14T08:23:55.564Z,5.50
2019-01-14T08:26:24.088Z,5.60
2019-01-14T08:28:52.582Z,5.60
2019-01-14T08:31:21.129Z,5.60
2019-01-14T08:33:49.686Z,5.60
2019-01-14T08:36:18.210Z,5.80
2019-01-14T08:38:46.699Z,5.70
2019-01-14T08:41:15.806Z,5.70
2019-01-14T08:43:45.234Z,5.70
2019-01-14T08:46:14.033Z,5.80
2019-01-14T08:48:48.683Z,5.70
2019-01-14T08:51:12.766Z,5.70
2019-01-14T08:53:41.251Z,5.70
2019-01-14T08:56:09.859Z,5.80
2019-01-14T08:58:38.413Z,5.80
2019-01-14T09:01:06.882Z,5.80
2019-01-14T09:03:35.447Z,5.90
2019-01-14T09:06:04.189Z,5.90
2019-01-14T09:08:32.670Z,5.90
2019-01-14T09:11:01.129Z,5.90
2019-01-14T09:13:29.614Z,5.80
2019-01-14T09:15:58.073Z,5.80
2019-01-14T09:18:26.558Z,5.80
2019-01-14T09:20:55.018Z,6.00
2019-01-14T09:23:23.546Z,6.00
2019-01-14T09:25:53.864Z,6.00
2019-01-14T09:28:22.215Z,6.00
2019-01-14T09:30:50.842Z,5.90
2019-01-14T09:33:19.386Z,5.90
2019-01-14T09:35:47.942Z,5.90
2019-01-14T09:38:16.472Z,5.80
2019-01-14T09:40:44.958Z,6.00
2019-01-14T09:43:13.490Z,6.00
2019-01-14T09:45:42.056Z,5.90
2019-01-14T09:48:10.582Z,6.10
2019-01-14T09:50:39.147Z,6.00
2019-01-14T09:53:07.746Z,6.00
2019-01-14T09:55:36.239Z,5.80
2019-01-14T09:58:04.773Z,5.80
2019-01-14T10:00:33.339Z,5.80
2019-01-14T10:03:01.866Z,5.80
2019-01-14T10:05:30.350Z,5.70
2019-01-14T10:07:58.815Z,5.70
2019-01-14T10:10:27.374Z,5.50
2019-01-14T10:12:55.909Z,5.60
2019-01-14T10:15:24.534Z,5.50
2019-01-14T10:17:57.502Z,5.40
2019-01-14T10:20:26.058Z,5.50
2019-01-14T10:22:54.517Z,5.50
2019-01-14T10:25:24.123Z,5.60
2019-01-14T10:27:52.803Z,5.60
2019-01-14T10:30:21.507Z,5.60
2019-01-14T10:32:50.112Z,5.60
2019-01-14T10:35:18.706Z,5.50
2019-01-14T10:37:47.191Z,5.40
2019-01-14T10:40:16.762Z,5.30
2019-01-14T10:42:45.691Z,5.60
2019-01-14T10:45:19.775Z,5.80
2019-01-14T10:47:48.573Z,5.70
2019-01-14T10:50:17.452Z,5.60
2019-01-14T10:52:46.147Z,5.70
2019-01-14T10:55:15.223Z,5.60
2019-01-14T10:57:44.315Z,5.50
2019-01-14T11:00:18.389Z,5.30
2019-01-14T11:02:48.076Z,5.30
2019-01-14T11:05:21.341Z,5.20
2019-01-14T11:07:49.887Z,5.60
2019-01-14T11:10:18.491Z,5.90
2019-01-14T11:12:47.196Z,6.20
2019-01-14T11:15:20.398Z,6.50
2019-01-14T11:17:49.024Z,6.40
2019-01-14T11:20:25.968Z,6.30
2019-01-14T11:22:54.604Z,6.20
2019-01-14T11:25:23.278Z,6.20
2019-01-14T11:27:51.925Z,6.20
2019-01-14T11:30:23.539Z,6.30
2019-01-14T11:32:52.165Z,6.30
2019-01-14T11:35:20.782Z,6.30
2019-01-14T11:37:49.407Z,6.30
2019-01-14T11:40:26.969Z,6.30
2019-01-14T11:42:55.527Z,6.30
2019-01-14T11:45:24.207Z,6.40
2019-01-14T11:47:52.931Z,6.50
2019-01-14T11:50:21.611Z,6.40
2019-01-14T11:52:50.238Z,6.50
2019-01-14T11:55:18.771Z,6.70
2019-01-14T11:57:47.403Z,6.60
2019-01-14T12:00:21.209Z,6.40
2019-01-14T12:02:49.762Z,6.30
2019-01-14T12:05:18.355Z,6.20
2019-01-14T12:07:46.983Z,6.10
2019-01-14T12:10:15.886Z,5.80
2019-01-14T12:12:44.423Z,5.70
2019-01-14T12:15:19.050Z,5.80
2019-01-14T12:17:47.650Z,5.60
2019-01-14T12:20:16.550Z,5.50
2019-01-14T12:22:45.448Z,5.60
2019-01-14T12:25:17.082Z,5.70
2019-01-14T12:27:45.685Z,5.70
2019-01-14T12:30:23.294Z,5.60
2019-01-14T12:32:51.757Z,5.70
2019-01-14T12:35:20.322Z,5.80
2019-01-14T12:37:48.908Z,6.00
2019-01-14T12:40:17.603Z,6.20
2019-01-14T12:42:46.347Z,6.40
2019-01-14T12:45:19.066Z,6.50
2019-01-14T12:47:47.717Z,6.60
2019-01-14T12:50:18.229Z,6.70
2019-01-14T12:52:46.938Z,6.80
2019-01-14T12:55:17.917Z,6.80
2019-01-14T12:57:46.447Z,6.70
2019-01-14T13:00:23.786Z,6.70
2019-01-14T13:02:52.414Z,6.80
2019-01-14T13:05:22.538Z,6.80
2019-01-14T13:07:51.338Z,6.80
2019-01-14T13:10:19.979Z,6.80
2019-01-14T13:12:48.501Z,6.80
2019-01-14T13:15:19.916Z,6.90
2019-01-14T13:17:48.514Z,6.80
2019-01-14T13:20:21.249Z,6.80
2019-01-14T13:22:49.910Z,6.80
2019-01-14T13:25:18.450Z,6.90
2019-01-14T13:27:47.098Z,6.90
2019-01-14T13:30:19.024Z,6.80
2019-01-14T13:32:47.562Z,6.70
2019-01-14T13:35:16.225Z,6.50
2019-01-14T13:37:44.806Z,6.50
2019-01-14T13:40:13.985Z,6.40
2019-01-14T13:42:42.555Z,6.40
2019-01-14T13:45:16.304Z,6.30
2019-01-14T13:47:45.618Z,6.10
2019-01-14T13:50:19.729Z,6.20
2019-01-14T13:52:49.742Z,6.10
2019-01-14T13:55:18.742Z,6.00
2019-01-14T13:57:47.402Z,6.10
2019-01-14T14:00:21.650Z,6.10
2019-01-14T14:02:50.289Z,6.00
2019-01-14T14:05:18.745Z,5.90
2019-01-14T14:07:47.349Z,5.90
2019-01-14T14:10:22.095Z,5.90
2019-01-14T14:12:50.630Z,5.90
2019-01-14T14:15:20.111Z,5.90
2019-01-14T14:17:48.581Z,5.90
2019-01-14T14:20:18.091Z,5.80
2019-01-14T14:22:46.790Z,5.80
2019-01-14T14:25:15.437Z,5.80
2019-01-14T14:27:43.902Z,5.80
2019-01-14T14:30:24.368Z,5.80
2019-01-14T14:32:52.964Z,5.80
2019-01-14T14:35:21.633Z,5.80
2019-01-14T14:37:50.209Z,5.70
2019-01-14T14:40:18.866Z,5.70
2019-01-14T14:42:47.470Z,5.70
2019-01-14T14:45:16.346Z,5.70
2019-01-14T14:47:44.918Z,5.70
2019-01-14T14:50:16.034Z,5.60
2019-01-14T14:52:46.050Z,5.60
2019-01-14T14:55:14.650Z,5.50
2019-01-14T14:57:43.238Z,5.60
2019-01-14T15:00:22.459Z,5.50
2019-01-14T15:02:51.574Z,5.50
2019-01-14T15:05:20.469Z,5.50
2019-01-14T15:07:49.044Z,5.40
2019-01-14T15:10:19.718Z,5.30
2019-01-14T15:12:49.454Z,5.30
2019-01-14T15:15:19.898Z,5.20
2019-01-14T15:17:48.439Z,5.30
2019-01-14T15:20:18.846Z,5.20
2019-01-14T15:22:47.450Z,5.20
2019-01-14T15:25:16.023Z,5.10
2019-01-14T15:27:44.704Z,5.10
2019-01-14T15:30:19.262Z,5.10
2019-01-14T15:32:47.791Z,5.00
2019-01-14T15:35:16.434Z,5.00
2019-01-14T15:37:45.033Z,4.90
2019-01-14T15:40:15.978Z,4.80
2019-01-14T15:42:46.535Z,4.80
2019-01-14T15:45:17.466Z,4.80
2019-01-14T15:47:46.066Z,4.70
2019-01-14T15:50:15.900Z,4.70
2019-01-14T15:52:44.498Z,4.70
2019-01-14T15:55:19.271Z,4.70
2019-01-14T15:57:47.946Z,4.70
2019-01-14T16:00:18.368Z,4.70
2019-01-14T16:02:47.643Z,4.70
2019-01-14T16:05:17.829Z,4.60
2019-01-14T16:07:46.299Z,4.60
2019-01-14T16:10:17.205Z,4.60
2019-01-14T16:12:45.782Z,4.50
2019-01-14T16:15:14.907Z,4.40
2019-01-14T16:17:43.663Z,4.30
2019-01-14T16:20:17.344Z,4.20
2019-01-14T16:22:46.077Z,4.30
2019-01-14T16:25:15.035Z,4.30
2019-01-14T16:27:43.607Z,4.30
2019-01-14T16:30:21.059Z,4.30
2019-01-14T16:32:49.590Z,4.30
2019-01-14T16:35:18.172Z,4.30
2019-01-14T16:37:46.750Z,4.30
2019-01-14T16:40:18.240Z,4.30
2019-01-14T16:42:45.666Z,4.20
2019-01-14T16:45:16.911Z,4.20
2019-01-14T16:47:45.429Z,4.20
2019-01-14T16:50:15.966Z,4.20
2019-01-14T16:52:44.510Z,4.20
2019-01-14T16:55:14.799Z,4.20
2019-01-14T16:57:43.395Z,4.30
2019-01-14T17:00:19.485Z,4.20
2019-01-14T17:02:48.023Z,4.20
2019-01-14T17:05:17.243Z,4.10
2019-01-14T17:07:46.410Z,4.10
2019-01-14T17:10:16.087Z,4.10
2019-01-14T17:12:44.795Z,4.10
2019-01-14T17:15:13.913Z,4.00
2019-01-14T17:17:42.626Z,4.00
2019-01-14T17:20:14.556Z,3.80
2019-01-14T17:22:43.268Z,3.80
2019-01-14T17:25:12.049Z,3.80
2019-01-14T17:27:40.702Z,3.80
2019-01-14T17:30:12.139Z,3.70
2019-01-14T17:32:40.738Z,3.70
2019-01-14T17:35:09.347Z,3.70
2019-01-14T17:37:38.065Z,3.70
2019-01-14T17:40:09.617Z,3.50
2019-01-14T17:42:38.198Z,3.40
2019-01-14T17:45:09.364Z,3.50
2019-01-14T17:47:38.091Z,3.50
2019-01-14T17:50:09.755Z,3.50
2019-01-14T17:52:38.295Z,3.40
2019-01-14T17:55:07.910Z,3.40
2019-01-14T17:57:36.507Z,3.40
2019-01-14T18:00:13.978Z,3.30
2019-01-14T18:02:42.571Z,3.40
2019-01-14T18:05:11.247Z,3.30
2019-01-14T18:07:39.799Z,3.30
2019-01-14T18:10:14.132Z,3.30
2019-01-14T18:12:42.766Z,3.30
2019-01-14T18:15:11.443Z,3.30
2019-01-14T18:17:39.995Z,3.20
2019-01-14T18:20:11.479Z,3.20
2019-01-14T18:22:40.291Z,3.30
2019-01-14T18:25:09.544Z,3.30
2019-01-14T18:27:38.171Z,3.30
2019-01-14T18:30:09.790Z,3.30
2019-01-14T18:32:38.282Z,3.20
2019-01-14T18:35:07.039Z,3.20
2019-01-14T18:37:35.645Z,3.20
2019-01-14T18:40:07.756Z,3.10
2019-01-14T18:42:36.362Z,3.20
2019-01-14T18:45:08.055Z,3.20
2019-01-14T18:47:36.664Z,3.10
2019-01-14T18:50:11.093Z,3.10
2019-01-14T18:52:39.623Z,3.10
2019-01-14T18:55:08.322Z,3.00
2019-01-14T18:57:36.860Z,2.70
2019-01-14T19:00:11.499Z,2.80
2019-01-14T19:02:40.035Z,2.70
2019-01-14T19:05:08.846Z,2.60
2019-01-14T19:07:37.381Z,2.70
2019-01-14T19:10:09.047Z,2.70
2019-01-14T19:12:37.589Z,2.60
2019-01-14T19:15:09.458Z,2.50
2019-01-14T19:17:38.009Z,2.50
2019-01-14T19:20:09.723Z,2.40
2019-01-14T19:22:38.259Z,2.20
2019-01-14T19:25:07.779Z,2.20
2019-01-14T19:27:36.359Z,2.30
2019-01-14T19:30:07.991Z,2.30
2019-01-14T19:32:38.559Z,2.30
2019-01-14T19:35:07.010Z,2.40
2019-01-14T19:37:35.594Z,2.50
2019-01-14T19:40:10.442Z,2.40
2019-01-14T19:42:39.062Z,2.40
2019-01-14T19:45:09.662Z,2.50
2019-01-14T19:47:38.130Z,2.50
2019-01-14T19:50:09.771Z,2.50
2019-01-14T19:52:38.304Z,2.70
2019-01-14T19:55:07.212Z,2.90
2019-01-14T19:57:35.742Z,3.00
2019-01-14T20:00:07.693Z,3.10
2019-01-14T20:02:36.307Z,3.10
2019-01-14T20:05:07.015Z,3.00
2019-01-14T20:07:35.555Z,2.90
2019-01-14T20:10:06.822Z,3.00
2019-01-14T20:12:35.365Z,3.00
2019-01-14T20:15:06.175Z,2.90
2019-01-14T20:17:34.706Z,2.90
2019-01-14T20:20:04.407Z,2.90
2019-01-14T20:22:32.938Z,2.90
2019-01-14T20:25:01.504Z,3.00
2019-01-14T20:27:30.047Z,2.90
2019-01-14T20:29:58.598Z,2.80
2019-01-14T20:32:27.150Z,2.80
2019-01-14T20:34:55.710Z,2.70
2019-01-14T20:37:24.324Z,2.70
2019-01-14T20:39:52.888Z,2.70
2019-01-14T20:42:21.433Z,2.80
2019-01-14T20:44:49.999Z,2.70
2019-01-14T20:47:18.559Z,2.70
2019-01-14T20:49:47.122Z,2.80
2019-01-14T20:52:15.722Z,2.90
2019-01-14T20:54:44.283Z,2.80
2019-01-14T20:57:13.154Z,2.90
2019-01-14T20:59:41.811Z,2.90
2019-01-14T21:02:10.348Z,2.90
2019-01-14T21:04:38.834Z,3.10
2019-01-14T21:07:07.475Z,3.20
2019-01-14T21:09:36.111Z,3.30
2019-01-14T21:12:04.831Z,3.40
2019-01-14T21:14:33.474Z,3.40
2019-01-14T21:17:01.943Z,3.60
2019-01-14T21:19:30.511Z,3.60
2019-01-14T21:21:59.048Z,3.50
2019-01-14T21:24:27.587Z,3.60
2019-01-14T21:26:56.163Z,3.70
2019-01-14T21:29:26.049Z,3.60
2019-01-14T21:31:54.770Z,3.60
2019-01-14T21:34:23.306Z,3.60
2019-01-14T21:36:51.796Z,3.50
2019-01-14T21:39:21.709Z,3.50
2019-01-14T21:41:50.271Z,3.40
2019-01-14T21:44:18.728Z,3.40
2019-01-14T21:46:47.289Z,3.50
2019-01-14T21:49:15.825Z,3.40
2019-01-14T21:51:44.387Z,3.30
2019-01-14T21:54:12.995Z,3.40
2019-01-14T21:56:41.554Z,3.50
2019-01-14T21:59:10.095Z,3.30
2019-01-14T22:01:38.671Z,3.20
2019-01-14T22:04:07.266Z,3.30
2019-01-14T22:06:35.827Z,3.30
2019-01-14T22:09:06.499Z,3.20
2019-01-14T22:11:38.709Z,3.20
2019-01-14T22:14:05.660Z,3.30
2019-01-14T22:16:34.183Z,3.10
2019-01-14T22:19:02.720Z,3.10
2019-01-14T22:21:31.291Z,3.10
2019-01-14T22:23:59.827Z,3.20
2019-01-14T22:26:28.401Z,3.10
2019-01-14T22:28:56.936Z,3.10
2019-01-14T22:31:25.508Z,3.00
2019-01-14T22:33:54.046Z,3.10
2019-01-14T22:36:22.606Z,3.00
2019-01-14T22:38:51.148Z,3.00
2019-01-14T22:41:19.718Z,3.00
2019-01-14T22:43:48.250Z,2.90
2019-01-14T22:46:16.790Z,3.00
2019-01-14T22:48:45.360Z,3.00
2019-01-14T22:51:13.895Z,2.90
2019-01-14T22:53:42.459Z,2.90
2019-01-14T22:56:11.002Z,3.00
2019-01-14T22:58:39.564Z,3.20
2019-01-14T23:01:13.778Z,3.00
2019-01-14T23:03:42.476Z,3.00
2019-01-14T23:06:11.011Z,3.00
2019-01-14T23:08:39.513Z,3.10
2019-01-14T23:11:08.110Z,3.00
2019-01-14T23:13:36.683Z,3.10
2019-01-14T23:16:05.282Z,3.00
2019-01-14T23:18:33.874Z,3.10
2019-01-14T23:21:02.387Z,3.10
2019-01-14T23:23:30.947Z,3.00
2019-01-14T23:25:59.488Z,3.00
2019-01-14T23:28:28.048Z,3.00
2019-01-14T23:30:56.582Z,3.00
2019-01-14T23:33:25.138Z,3.20
2019-01-14T23:35:53.747Z,3.10
2019-01-14T23:38:22.379Z,3.10
2019-01-14T23:40:50.984Z,3.10
2019-01-14T23:43:19.654Z,3.20
2019-01-14T23:45:48.296Z,3.10
2019-01-14T23:48:16.825Z,3.10
2019-01-14T23:50:45.389Z,3.10
2019-01-14T23:53:13.919Z,3.20
2019-01-14T23:55:42.492Z,3.20
2019-01-14T23:58:11.031Z,3.20
